createdAt,value
2022-09-01T00:02:58.067Z,64.75
2022-09-01T00:06:00.242Z,65.38
2022-09-01T00:09:05.817Z,66.31
2022-09-01T00:12:09.288Z,65.78
2022-09-01T00:15:12.644Z,65.58
2022-09-01T00:18:15.829Z,66.20
2022-09-01T00:21:28.901Z,66.87
2022-09-01T00:24:30.790Z,66.01
2022-09-01T00:27:32.610Z,66.35
2022-09-01T00:30:34.403Z,66.09
2022-09-01T00:33:36.233Z,65.98
2022-09-01T00:36:38.203Z,66.38
2022-09-01T00:39:40.015Z,67.60
2022-09-01T00:42:42.053Z,66.75
2022-09-01T00:45:43.877Z,66.74
2022-09-01T00:48:47.663Z,67.58
2022-09-01T00:51:52.956Z,68.45
2022-09-01T00:54:59.147Z,67.43
2022-09-01T00:58:02.370Z,67.25
2022-09-01T01:01:08.790Z,67.29
2022-09-01T01:04:14.964Z,67.08
2022-09-01T01:07:17.084Z,67.12
2022-09-01T01:10:19.570Z,67.35
2022-09-01T01:13:22.088Z,67.47
2022-09-01T01:16:26.901Z,67.56
2022-09-01T01:20:04.428Z,68.63
2022-09-01T01:23:22.966Z,68.30
2022-09-01T01:26:24.940Z,67.73
2022-09-01T01:29:32.616Z,67.70
2022-09-01T01:32:36.209Z,68.08
2022-09-01T01:35:38.257Z,68.57
2022-09-01T01:38:42.874Z,67.95
2022-09-01T01:41:48.982Z,67.72
2022-09-01T01:44:52.480Z,67.53
2022-09-01T01:47:55.843Z,67.23
2022-09-01T01:50:59.736Z,67.63
2022-09-01T01:54:05.857Z,67.14
2022-09-01T01:57:08.462Z,67.78
2022-09-01T02:00:11.528Z,67.72
2022-09-01T02:03:20.285Z,67.24
2022-09-01T02:06:24.934Z,67.44
2022-09-01T02:09:29.498Z,68.04
2022-09-01T02:12:34.611Z,67.48
2022-09-01T02:15:44.329Z,66.66
2022-09-01T02:18:49.893Z,67.90
2022-09-01T02:21:56.246Z,67.96
2022-09-01T02:24:58.027Z,67.73
2022-09-01T02:28:00.656Z,67.87
2022-09-01T02:31:05.931Z,68.29
2022-09-01T02:34:10.779Z,68.51
2022-09-01T02:37:12.646Z,68.18
2022-09-01T02:40:16.056Z,67.37
2022-09-01T02:43:20.594Z,67.51
2022-09-01T02:46:24.866Z,67.22
2022-09-01T02:49:30.067Z,67.30
2022-09-01T02:52:37.633Z,66.97
2022-09-01T02:55:40.272Z,66.62
2022-09-01T02:58:47.111Z,67.53
2022-09-01T03:01:50.558Z,66.91
2022-09-01T03:04:54.496Z,67.18
2022-09-01T03:08:00.715Z,67.70
2022-09-01T03:11:03.337Z,67.55
2022-09-01T03:14:06.406Z,67.24
2022-09-01T03:17:08.319Z,67.79
2022-09-01T03:20:10.454Z,68.17
2022-09-01T03:23:15.015Z,68.88
2022-09-01T03:26:22.902Z,67.86
2022-09-01T03:29:24.683Z,68.40
2022-09-01T03:32:26.496Z,67.64
2022-09-01T03:35:29.824Z,67.83
2022-09-01T03:38:34.499Z,67.82
2022-09-01T03:41:38.461Z,67.14
2022-09-01T03:44:41.027Z,67.39
2022-09-01T03:47:43.721Z,67.26
2022-09-01T03:50:46.448Z,67.01
2022-09-01T03:53:48.495Z,66.94
2022-09-01T03:56:51.229Z,66.56
2022-09-01T03:59:55.278Z,66.72
2022-09-01T04:02:59.045Z,66.13
2022-09-01T04:06:02.743Z,65.99
2022-09-01T04:09:04.769Z,65.52
2022-09-01T04:12:09.183Z,65.72
2022-09-01T04:15:14.416Z,65.74
2022-09-01T04:18:21.945Z,66.66
2022-09-01T04:21:24.192Z,66.56
2022-09-01T04:24:28.384Z,66.05
2022-09-01T04:27:30.386Z,66.96
2022-09-01T04:30:33.880Z,65.99
2022-09-01T04:33:39.895Z,66.79
2022-09-01T04:36:44.883Z,67.14
2022-09-01T04:39:56.871Z,67.94
2022-09-01T04:42:59.649Z,67.25
2022-09-01T04:46:03.453Z,66.88
2022-09-01T04:49:12.970Z,66.83
2022-09-01T04:52:16.043Z,67.70
2022-09-01T04:55:18.236Z,66.26
2022-09-01T04:58:22.263Z,66.16
2022-09-01T05:01:26.377Z,66.17
2022-09-01T05:04:32.617Z,65.46
2022-09-01T05:07:38.173Z,66.21
2022-09-01T05:10:45.283Z,65.79
2022-09-01T05:13:57.915Z,66.03
2022-09-01T05:17:00.763Z,65.68
2022-09-01T05:20:03.896Z,65.31
2022-09-01T05:23:05.733Z,64.44
2022-09-01T05:26:18.131Z,64.00
2022-09-01T05:29:21.271Z,65.26
2022-09-01T05:32:26.223Z,64.42
2022-09-01T05:35:32.523Z,64.87
2022-09-01T05:38:35.258Z,62.62
2022-09-01T05:41:37.304Z,63.70
2022-09-01T05:44:44.617Z,61.77
2022-09-01T05:47:50.354Z,62.63
2022-09-01T05:50:56.311Z,62.71
2022-09-01T05:53:59.304Z,62.08
2022-09-01T05:57:23.468Z,61.12
2022-09-01T06:00:34.845Z,62.64
2022-09-01T06:03:38.027Z,62.47
2022-09-01T06:07:05.561Z,63.22
2022-09-01T06:10:09.920Z,62.06
2022-09-01T06:13:16.063Z,63.00
2022-09-01T06:16:19.766Z,61.89
2022-09-01T06:19:22.254Z,61.52
2022-09-01T06:22:26.725Z,60.53
2022-09-01T06:25:30.680Z,61.45
2022-09-01T06:28:33.694Z,60.83
2022-09-01T06:31:39.559Z,60.83
2022-09-01T06:34:44.955Z,60.67
2022-09-01T06:37:47.270Z,61.33
2022-09-01T06:41:08.670Z,59.27
2022-09-01T06:44:14.575Z,59.47
2022-09-01T06:47:24.415Z,56.01
2022-09-01T06:53:56.946Z,57.47
2022-09-01T06:58:03.398Z,54.92
2022-09-01T07:00:26.702Z,54.96
2022-09-01T07:03:28.980Z,53.74
2022-09-01T07:07:00.349Z,55.98
2022-09-01T07:13:36.219Z,54.75
2022-09-01T07:16:51.945Z,54.84
2022-09-01T07:19:56.170Z,54.21
2022-09-01T07:23:05.587Z,52.89
2022-09-01T07:26:08.717Z,51.59
2022-09-01T07:29:17.618Z,51.75
2022-09-01T07:36:25.717Z,49.94
2022-09-01T07:42:31.249Z,55.58
2022-09-01T07:43:15.034Z,49.24
2022-09-01T07:46:37.687Z,48.29
2022-09-01T07:53:06.690Z,48.19
2022-09-01T07:56:10.453Z,46.65
2022-09-01T07:59:18.439Z,47.33
2022-09-01T08:02:28.830Z,47.98
2022-09-01T08:05:34.751Z,46.93
2022-09-01T08:08:38.190Z,49.90
2022-09-01T08:12:02.037Z,46.25
2022-09-01T08:15:38.007Z,46.86
2022-09-01T08:18:50.559Z,45.72
2022-09-01T08:22:29.872Z,46.43
2022-09-01T08:25:37.684Z,46.72
2022-09-01T08:28:46.040Z,46.84
2022-09-01T08:31:49.623Z,46.21
2022-09-01T08:34:52.359Z,44.99
2022-09-01T08:37:55.956Z,46.31
2022-09-01T08:41:00.940Z,45.60
2022-09-01T08:44:17.379Z,44.97
2022-09-01T08:47:28.883Z,44.99
2022-09-01T08:50:36.477Z,46.44
2022-09-01T08:54:29.989Z,44.51
2022-09-01T08:57:41.256Z,44.21
2022-09-01T09:00:59.855Z,42.74
2022-09-01T09:04:24.059Z,43.26
2022-09-01T09:07:43.261Z,41.67
2022-09-01T09:11:16.416Z,42.27
2022-09-01T09:14:33.999Z,42.65
2022-09-01T09:17:42.278Z,43.86
2022-09-01T09:20:45.756Z,42.33
2022-09-01T09:23:52.621Z,40.96
2022-09-01T09:26:59.110Z,41.98
2022-09-01T09:30:08.056Z,41.49
2022-09-01T09:33:51.407Z,40.22
2022-09-01T09:36:57.119Z,43.11
2022-09-01T09:40:43.271Z,39.90
2022-09-01T09:44:02.486Z,41.28
2022-09-01T09:47:17.269Z,42.40
2022-09-01T09:50:31.120Z,39.77
2022-09-01T09:53:34.613Z,40.21
2022-09-01T09:56:36.676Z,40.13
2022-09-01T09:59:57.829Z,41.94
2022-09-01T10:03:11.219Z,39.57
2022-09-01T10:06:29.495Z,39.68
2022-09-01T10:09:32.815Z,41.46
2022-09-01T10:12:36.075Z,41.17
2022-09-01T10:15:39.552Z,41.20
2022-09-01T10:18:45.428Z,40.01
2022-09-01T10:21:48.135Z,41.01
2022-09-01T10:24:50.746Z,40.29
2022-09-01T10:27:59.187Z,41.44
2022-09-01T10:31:02.746Z,40.00
2022-09-01T10:34:06.821Z,41.03
2022-09-01T10:37:10.528Z,39.66
2022-09-01T10:40:20.669Z,38.04
2022-09-01T10:43:35.889Z,41.97
2022-09-01T10:46:40.751Z,38.45
2022-09-01T10:49:46.814Z,40.88
2022-09-01T10:52:51.197Z,39.70
2022-09-01T10:56:23.608Z,38.48
2022-09-01T10:59:32.714Z,39.52
2022-09-01T11:02:42.096Z,40.00
2022-09-01T11:06:11.166Z,36.67
2022-09-01T11:09:20.260Z,38.54
2022-09-01T11:12:30.035Z,39.93
2022-09-01T11:15:45.767Z,40.80
2022-09-01T11:18:49.853Z,39.71
2022-09-01T11:22:20.579Z,40.35
2022-09-01T11:25:45.812Z,40.37
2022-09-01T11:28:49.083Z,40.07
2022-09-01T11:31:52.788Z,39.39
2022-09-01T11:34:56.458Z,39.33
2022-09-01T11:38:04.808Z,38.24
2022-09-01T11:41:06.983Z,39.47
2022-09-01T11:44:28.178Z,39.00
2022-09-01T11:47:44.427Z,39.06
2022-09-01T11:50:58.631Z,37.65
2022-09-01T11:54:01.517Z,40.63
2022-09-01T11:57:18.415Z,39.75
2022-09-01T12:00:26.210Z,40.15
2022-09-01T12:03:30.139Z,38.88
2022-09-01T12:06:32.673Z,38.51
2022-09-01T12:09:46.848Z,40.62
2022-09-01T12:12:49.137Z,41.74
2022-09-01T12:16:18.382Z,41.81
2022-09-01T12:19:28.810Z,41.31
2022-09-01T12:22:30.892Z,41.76
2022-09-01T12:25:34.714Z,41.35
2022-09-01T12:28:41.844Z,41.81
2022-09-01T12:31:47.252Z,41.06
2022-09-01T12:35:05.631Z,42.51
2022-09-01T12:38:20.925Z,41.79
2022-09-01T12:41:39.158Z,42.62
2022-09-01T12:44:42.097Z,41.52
2022-09-01T12:47:50.325Z,42.24
2022-09-01T12:50:56.157Z,42.46
2022-09-01T12:54:04.732Z,43.15
2022-09-01T12:57:07.835Z,43.56
2022-09-01T13:00:20.166Z,44.03
2022-09-01T13:03:25.255Z,43.36
2022-09-01T13:06:27.477Z,42.86
2022-09-01T13:09:30.341Z,40.57
2022-09-01T13:12:32.462Z,41.63
2022-09-01T13:15:36.133Z,42.41
2022-09-01T13:22:04.249Z,41.01
2022-09-01T13:25:06.758Z,40.86
2022-09-01T13:28:09.286Z,40.42
2022-09-01T13:34:36.223Z,39.04
2022-09-01T13:37:41.125Z,39.27
2022-09-01T13:40:47.350Z,40.34
2022-09-01T13:43:49.969Z,39.42
2022-09-01T13:47:00.985Z,40.27
2022-09-01T13:50:23.728Z,40.29
2022-09-01T13:53:27.057Z,40.11
2022-09-01T13:56:29.765Z,40.20
2022-09-01T13:59:33.285Z,40.57
2022-09-01T14:02:37.075Z,41.00
2022-09-01T14:05:42.279Z,39.39
2022-09-01T14:08:44.645Z,40.33
2022-09-01T14:11:46.905Z,39.83
2022-09-01T14:18:16.400Z,39.56
2022-09-01T14:21:19.875Z,38.53
2022-09-01T14:24:22.567Z,38.00
2022-09-01T14:27:25.250Z,38.21
2022-09-01T14:30:31.414Z,38.15
2022-09-01T14:33:34.529Z,38.53
2022-09-01T14:36:36.531Z,37.91
2022-09-01T14:39:39.384Z,38.68
2022-09-01T14:42:44.034Z,38.75
2022-09-01T14:45:48.428Z,38.75
2022-09-01T14:48:51.094Z,40.15
2022-09-01T14:55:16.934Z,40.62
2022-09-01T14:58:19.682Z,40.79
2022-09-01T15:01:34.383Z,41.39
2022-09-01T15:04:38.077Z,41.97
2022-09-01T15:07:41.564Z,42.85
2022-09-01T15:10:44.392Z,42.19
2022-09-01T15:13:47.390Z,41.59
2022-09-01T15:16:49.641Z,42.25
2022-09-01T15:19:51.910Z,41.44
2022-09-01T15:22:54.379Z,41.65
2022-09-01T15:25:58.597Z,42.05
2022-09-01T15:29:02.193Z,41.09
2022-09-01T15:32:04.341Z,41.72
2022-09-01T15:35:07.248Z,41.98
2022-09-01T15:38:10.792Z,42.22
2022-09-01T15:41:19.852Z,42.65
2022-09-01T15:44:22.829Z,42.33
2022-09-01T15:47:28.528Z,42.04
2022-09-01T15:50:30.779Z,42.10
2022-09-01T15:53:33.380Z,41.68
2022-09-01T15:56:35.467Z,42.15
2022-09-01T15:59:40.822Z,42.74
2022-09-01T16:02:43.315Z,42.29
2022-09-01T16:05:46.138Z,41.79
2022-09-01T16:08:48.094Z,41.79
2022-09-01T16:11:50.462Z,42.14
2022-09-01T16:14:54.329Z,40.99
2022-09-01T16:17:59.399Z,40.71
2022-09-01T16:21:03.778Z,42.24
2022-09-01T16:24:10.747Z,41.91
2022-09-01T16:27:19.160Z,42.37
2022-09-01T16:30:25.241Z,42.32
2022-09-01T16:33:27.639Z,43.45
2022-09-01T16:36:40.926Z,44.08
2022-09-01T16:40:09.331Z,44.20
2022-09-01T16:43:38.816Z,44.98
2022-09-01T16:47:26.094Z,45.85
2022-09-01T16:51:00.758Z,45.64
2022-09-01T16:54:22.391Z,46.18
2022-09-01T16:57:46.972Z,45.56
2022-09-01T17:00:57.261Z,45.65
2022-09-01T17:04:16.107Z,45.38
2022-09-01T17:07:38.788Z,45.41
2022-09-01T17:10:43.958Z,45.34
2022-09-01T17:13:49.856Z,45.77
2022-09-01T17:16:54.788Z,45.48
2022-09-01T17:19:58.412Z,46.35
2022-09-01T17:23:09.361Z,45.94
2022-09-01T17:26:24.116Z,45.26
2022-09-01T17:29:29.787Z,45.93
2022-09-01T17:32:48.059Z,46.18
2022-09-01T17:35:57.876Z,45.75
2022-09-01T17:39:10.064Z,46.40
2022-09-01T17:42:30.879Z,46.16
2022-09-01T17:45:35.717Z,45.67
2022-09-01T17:49:01.788Z,45.97
2022-09-01T17:52:33.511Z,46.27
2022-09-01T17:55:55.915Z,46.65
2022-09-01T17:59:15.265Z,47.28
2022-09-01T18:02:26.488Z,47.35
2022-09-01T18:05:30.743Z,47.52
2022-09-01T18:08:46.843Z,47.68
2022-09-01T18:11:59.029Z,47.93
2022-09-01T18:15:05.321Z,48.09
2022-09-01T18:18:21.276Z,48.42
2022-09-01T18:21:33.716Z,47.52
2022-09-01T18:24:59.849Z,48.39
2022-09-01T18:28:02.371Z,48.05
2022-09-01T18:31:35.101Z,48.78
2022-09-01T18:34:59.091Z,47.89
2022-09-01T18:38:10.004Z,48.36
2022-09-01T18:41:21.476Z,48.31
2022-09-01T18:44:38.795Z,49.35
2022-09-01T18:47:49.311Z,49.25
2022-09-01T18:50:56.588Z,49.72
2022-09-01T18:54:13.887Z,49.54
2022-09-01T18:57:21.330Z,49.86
2022-09-01T19:01:00.125Z,50.22
2022-09-01T19:04:29.519Z,50.54
2022-09-01T19:07:37.076Z,51.13
2022-09-01T19:10:51.823Z,51.37
2022-09-01T19:14:15.176Z,52.20
2022-09-01T19:18:00.032Z,52.65
2022-09-01T19:21:20.578Z,52.15
2022-09-01T19:24:29.485Z,51.93
2022-09-01T19:27:32.378Z,51.52
2022-09-01T19:30:36.624Z,51.80
2022-09-01T19:33:41.547Z,52.11
2022-09-01T19:36:53.404Z,51.86
2022-09-01T19:39:56.698Z,50.72
2022-09-01T19:43:09.217Z,52.07
2022-09-01T19:46:27.212Z,51.53
2022-09-01T19:49:41.978Z,52.14
2022-09-01T19:53:19.792Z,53.88
2022-09-01T19:56:54.842Z,53.46
2022-09-01T20:00:11.313Z,54.78
2022-09-01T20:03:18.836Z,53.25
2022-09-01T20:06:42.863Z,55.13
2022-09-01T20:09:50.449Z,52.08
2022-09-01T20:13:11.046Z,53.29
2022-09-01T20:16:25.020Z,55.41
2022-09-01T20:19:42.817Z,53.44
2022-09-01T20:22:55.568Z,54.76
2022-09-01T20:26:09.750Z,54.40
2022-09-01T20:29:41.335Z,57.24
2022-09-01T20:33:21.239Z,57.86
2022-09-01T20:36:40.324Z,56.54
2022-09-01T20:40:05.295Z,55.71
2022-09-01T20:43:23.036Z,57.04
2022-09-01T20:46:26.946Z,57.28
2022-09-01T20:49:29.761Z,57.33
2022-09-01T20:52:50.801Z,57.52
2022-09-01T20:56:10.395Z,58.42
2022-09-01T20:59:16.507Z,57.36
2022-09-01T21:03:12.124Z,57.90
2022-09-01T21:06:41.986Z,57.19
2022-09-01T21:09:59.081Z,56.00
2022-09-01T21:13:29.014Z,55.51
2022-09-01T21:16:58.099Z,57.83
2022-09-01T21:20:23.331Z,57.51
2022-09-01T21:23:26.441Z,57.83
2022-09-01T21:26:29.400Z,59.04
2022-09-01T21:29:44.014Z,57.80
2022-09-01T21:32:46.575Z,58.24
2022-09-01T21:35:48.595Z,56.92
2022-09-01T21:38:50.915Z,57.12
2022-09-01T21:41:53.092Z,56.67
2022-09-01T21:44:56.010Z,57.62
2022-09-01T21:47:58.552Z,57.75
2022-09-01T21:51:01.253Z,56.95
2022-09-01T21:54:03.547Z,57.33
2022-09-01T21:57:08.313Z,57.40
2022-09-01T22:00:14.385Z,57.41
2022-09-01T22:03:20.584Z,57.82
2022-09-01T22:06:23.340Z,58.17
2022-09-01T22:09:32.983Z,58.58
2022-09-01T22:12:39.362Z,59.45
2022-09-01T22:15:48.467Z,57.46
2022-09-01T22:18:50.856Z,58.14
2022-09-01T22:21:54.005Z,58.32
2022-09-01T22:24:55.919Z,58.38
2022-09-01T22:27:59.385Z,58.32
2022-09-01T22:31:01.850Z,58.34
2022-09-01T22:34:05.275Z,58.52
2022-09-01T22:37:07.225Z,58.53
2022-09-01T22:40:10.760Z,58.58
2022-09-01T22:43:16.812Z,59.43
2022-09-01T22:46:21.383Z,59.22
2022-09-01T22:49:24.133Z,59.59
2022-09-01T22:52:27.727Z,59.59
2022-09-01T22:55:29.927Z,58.75
2022-09-01T22:58:31.943Z,59.58
2022-09-01T23:01:38.435Z,60.03
2022-09-01T23:04:42.982Z,59.40
2022-09-01T23:07:44.922Z,58.81
2022-09-01T23:10:46.901Z,60.02
2022-09-01T23:13:49.376Z,59.76
2022-09-01T23:16:52.203Z,59.42
2022-09-01T23:19:57.306Z,60.15
2022-09-01T23:22:59.203Z,60.14
2022-09-01T23:26:03.333Z,60.46
2022-09-01T23:29:05.681Z,60.51
2022-09-01T23:32:08.000Z,60.69
2022-09-01T23:35:10.822Z,61.14
2022-09-01T23:38:13.263Z,61.24
2022-09-01T23:41:19.304Z,60.83
2022-09-01T23:44:21.973Z,61.09
2022-09-01T23:47:24.714Z,61.68
2022-09-01T23:50:26.770Z,61.21
2022-09-01T23:53:31.264Z,61.51
2022-09-01T23:56:33.757Z,61.60
2022-09-01T23:59:35.685Z,61.49
